<?xml version="1.0" encoding="UTF-8" standalone="no" ?>
<gpx xmlns="http://www.topografix.com/GPX/1/1" xmlns:xsi="http://www.w3.org/2001/XMLSchema-instance" xsi:schemaLocation="http://www.topografix.com/GPX/1/1 http://www.topografix.com/GPX/1/1/gpx.xsd" version="1.1" creator="VisuGPX - https://www.visugpx.com">
  <metadata>
    <name>OMS CHENOVE Marche du vendredi 15 mars 2013</name>
    <desc><![CDATA[De Velars à Plombières par la ferme du Contard]]></desc>
  </metadata>
  <trk>
    <name><![CDATA[OMS CHENOVE Marche du vendredi 15 mars 2013_1]]></name>
    <trkseg>
      <trkpt lat="47.319" lon="4.90785">
        <ele>280.02</ele>
        <time>2013-03-15T09:33:20Z</time>
      </trkpt>
      <trkpt lat="47.319" lon="4.90772">
        <ele>280.587</ele>
        <time>2013-03-15T09:33:31Z</time>
      </trkpt>
      <trkpt lat="47.31902" lon="4.90755">
        <ele>281.197</ele>
        <time>2013-03-15T09:33:42Z</time>
      </trkpt>
      <trkpt lat="47.31908" lon="4.90732">
        <ele>283.07</ele>
        <time>2013-03-15T09:33:53Z</time>
      </trkpt>
      <trkpt lat="47.31902" lon="4.9071">
        <ele>283.203</ele>
        <time>2013-03-15T09:34:04Z</time>
      </trkpt>
      <trkpt lat="47.31897" lon="4.90695">
        <ele>279.023</ele>
        <time>2013-03-15T09:34:15Z</time>
      </trkpt>
      <trkpt lat="47.31887" lon="4.90677">
        <ele>280.355</ele>
        <time>2013-03-15T09:34:26Z</time>
      </trkpt>
      <trkpt lat="47.31877" lon="4.9066">
        <ele>280.431</ele>
        <time>2013-03-15T09:34:37Z</time>
      </trkpt>
      <trkpt lat="47.31868" lon="4.90638">
        <ele>280.081</ele>
        <time>2013-03-15T09:34:48Z</time>
      </trkpt>
      <trkpt lat="47.31865" lon="4.90613">
        <ele>281.278</ele>
        <time>2013-03-15T09:34:59Z</time>
      </trkpt>
      <trkpt lat="47.31867" lon="4.90595">
        <ele>282.014</ele>
        <time>2013-03-15T09:35:10Z</time>
      </trkpt>
      <trkpt lat="47.31872" lon="4.9057">
        <ele>281.073</ele>
        <time>2013-03-15T09:35:21Z</time>
      </trkpt>
      <trkpt lat="47.31873" lon="4.90545">
        <ele>281.968</ele>
        <time>2013-03-15T09:35:32Z</time>
      </trkpt>
      <trkpt lat="47.31875" lon="4.90525">
        <ele>280.633</ele>
        <time>2013-03-15T09:35:43Z</time>
      </trkpt>
      <trkpt lat="47.31872" lon="4.905">
        <ele>280.171</ele>
        <time>2013-03-15T09:35:54Z</time>
      </trkpt>
      <trkpt lat="47.31872" lon="4.90482">
        <ele>281.576</ele>
        <time>2013-03-15T09:36:05Z</time>
      </trkpt>
      <trkpt lat="47.31872" lon="4.90463">
        <ele>282.702</ele>
        <time>2013-03-15T09:36:16Z</time>
      </trkpt>
      <trkpt lat="47.31872" lon="4.90442">
        <ele>283.827</ele>
        <time>2013-03-15T09:36:27Z</time>
      </trkpt>
      <trkpt lat="47.31875" lon="4.90418">
        <ele>284.689</ele>
        <time>2013-03-15T09:36:38Z</time>
      </trkpt>
      <trkpt lat="47.31888" lon="4.90402">
        <ele>286.451</ele>
        <time>2013-03-15T09:36:49Z</time>
      </trkpt>
      <trkpt lat="47.31898" lon="4.90388">
        <ele>285.731</ele>
        <time>2013-03-15T09:37:00Z</time>
      </trkpt>
      <trkpt lat="47.31913" lon="4.90383">
        <ele>285.135</ele>
        <time>2013-03-15T09:37:11Z</time>
      </trkpt>
      <trkpt lat="47.3193" lon="4.9038">
        <ele>284.757</ele>
        <time>2013-03-15T09:37:22Z</time>
      </trkpt>
      <trkpt lat="47.31938" lon="4.90362">
        <ele>285.58</ele>
        <time>2013-03-15T09:37:33Z</time>
      </trkpt>
      <trkpt lat="47.3194" lon="4.9034">
        <ele>286.109</ele>
        <time>2013-03-15T09:37:44Z</time>
      </trkpt>
      <trkpt lat="47.3194" lon="4.90315">
        <ele>287.528</ele>
        <time>2013-03-15T09:37:55Z</time>
      </trkpt>
      <trkpt lat="47.31938" lon="4.90297">
        <ele>288.842</ele>
        <time>2013-03-15T09:38:06Z</time>
      </trkpt>
      <trkpt lat="47.31938" lon="4.90275">
        <ele>289.819</ele>
        <time>2013-03-15T09:38:17Z</time>
      </trkpt>
      <trkpt lat="47.3194" lon="4.90263">
        <ele>291.711</ele>
        <time>2013-03-15T09:38:28Z</time>
      </trkpt>
      <trkpt lat="47.31945" lon="4.90245">
        <ele>293.552</ele>
        <time>2013-03-15T09:38:39Z</time>
      </trkpt>
      <trkpt lat="47.3195" lon="4.90222">
        <ele>295.298</ele>
        <time>2013-03-15T09:38:50Z</time>
      </trkpt>
      <trkpt lat="47.31957" lon="4.902">
        <ele>296.242</ele>
        <time>2013-03-15T09:39:01Z</time>
      </trkpt>
      <trkpt lat="47.31962" lon="4.9018">
        <ele>297.042</ele>
        <time>2013-03-15T09:39:12Z</time>
      </trkpt>
      <trkpt lat="47.31968" lon="4.9016">
        <ele>297.475</ele>
        <time>2013-03-15T09:39:23Z</time>
      </trkpt>
      <trkpt lat="47.31978" lon="4.90142">
        <ele>297.555</ele>
        <time>2013-03-15T09:39:34Z</time>
      </trkpt>
      <trkpt lat="47.3199" lon="4.9013">
        <ele>297.779</ele>
        <time>2013-03-15T09:39:45Z</time>
      </trkpt>
      <trkpt lat="47.32005" lon="4.90125">
        <ele>299.164</ele>
        <time>2013-03-15T09:39:56Z</time>
      </trkpt>
      <trkpt lat="47.3202" lon="4.90123">
        <ele>301.001</ele>
        <time>2013-03-15T09:40:07Z</time>
      </trkpt>
      <trkpt lat="47.32037" lon="4.90123">
        <ele>302.554</ele>
        <time>2013-03-15T09:40:18Z</time>
      </trkpt>
      <trkpt lat="47.32052" lon="4.90125">
        <ele>303.569</ele>
        <time>2013-03-15T09:40:29Z</time>
      </trkpt>
      <trkpt lat="47.32065" lon="4.90122">
        <ele>304.025</ele>
        <time>2013-03-15T09:40:40Z</time>
      </trkpt>
      <trkpt lat="47.3208" lon="4.90113">
        <ele>305.018</ele>
        <time>2013-03-15T09:40:51Z</time>
      </trkpt>
      <trkpt lat="47.32093" lon="4.90102">
        <ele>305.968</ele>
        <time>2013-03-15T09:41:02Z</time>
      </trkpt>
      <trkpt lat="47.32107" lon="4.90093">
        <ele>306.575</ele>
        <time>2013-03-15T09:41:13Z</time>
      </trkpt>
      <trkpt lat="47.32107" lon="4.90092">
        <ele>306.72</ele>
        <time>2013-03-15T09:41:24Z</time>
      </trkpt>
      <trkpt lat="47.32118" lon="4.90082">
        <ele>307.537</ele>
        <time>2013-03-15T09:41:35Z</time>
      </trkpt>
      <trkpt lat="47.3213" lon="4.9007">
        <ele>307.496</ele>
        <time>2013-03-15T09:41:46Z</time>
      </trkpt>
      <trkpt lat="47.32143" lon="4.9006">
        <ele>305.77</ele>
        <time>2013-03-15T09:41:57Z</time>
      </trkpt>
      <trkpt lat="47.32155" lon="4.9005">
        <ele>305.542</ele>
        <time>2013-03-15T09:42:08Z</time>
      </trkpt>
      <trkpt lat="47.32168" lon="4.90037">
        <ele>306.449</ele>
        <time>2013-03-15T09:42:19Z</time>
      </trkpt>
      <trkpt lat="47.32182" lon="4.90025">
        <ele>306.969</ele>
        <time>2013-03-15T09:42:30Z</time>
      </trkpt>
      <trkpt lat="47.32193" lon="4.90013">
        <ele>307.327</ele>
        <time>2013-03-15T09:42:41Z</time>
      </trkpt>
      <trkpt lat="47.32207" lon="4.90005">
        <ele>306.479</ele>
        <time>2013-03-15T09:42:52Z</time>
      </trkpt>
      <trkpt lat="47.32225" lon="4.90005">
        <ele>306.438</ele>
        <time>2013-03-15T09:43:03Z</time>
      </trkpt>
      <trkpt lat="47.32242" lon="4.90005">
        <ele>308.525</ele>
        <time>2013-03-15T09:43:14Z</time>
      </trkpt>
      <trkpt lat="47.32257" lon="4.90002">
        <ele>308.577</ele>
        <time>2013-03-15T09:43:25Z</time>
      </trkpt>
      <trkpt lat="47.3227" lon="4.89988">
        <ele>311.361</ele>
        <time>2013-03-15T09:43:36Z</time>
      </trkpt>
      <trkpt lat="47.32272" lon="4.89972">
        <ele>312.48</ele>
        <time>2013-03-15T09:43:47Z</time>
      </trkpt>
      <trkpt lat="47.32262" lon="4.89958">
        <ele>316.156</ele>
        <time>2013-03-15T09:43:58Z</time>
      </trkpt>
      <trkpt lat="47.32252" lon="4.89942">
        <ele>318.231</ele>
        <time>2013-03-15T09:44:09Z</time>
      </trkpt>
      <trkpt lat="47.3224" lon="4.89938">
        <ele>319.563</ele>
        <time>2013-03-15T09:44:20Z</time>
      </trkpt>
      <trkpt lat="47.3223" lon="4.89933">
        <ele>321.091</ele>
        <time>2013-03-15T09:44:31Z</time>
      </trkpt>
      <trkpt lat="47.32218" lon="4.89923">
        <ele>323.568</ele>
        <time>2013-03-15T09:44:42Z</time>
      </trkpt>
      <trkpt lat="47.32212" lon="4.899">
        <ele>325.785</ele>
        <time>2013-03-15T09:44:53Z</time>
      </trkpt>
      <trkpt lat="47.3221" lon="4.89873">
        <ele>328.971</ele>
        <time>2013-03-15T09:45:04Z</time>
      </trkpt>
      <trkpt lat="47.32208" lon="4.8985">
        <ele>329.268</ele>
        <time>2013-03-15T09:45:15Z</time>
      </trkpt>
      <trkpt lat="47.32212" lon="4.8983">
        <ele>330.028</ele>
        <time>2013-03-15T09:45:26Z</time>
      </trkpt>
      <trkpt lat="47.32213" lon="4.89812">
        <ele>330.307</ele>
        <time>2013-03-15T09:45:37Z</time>
      </trkpt>
      <trkpt lat="47.3222" lon="4.89797">
        <ele>330.564</ele>
        <time>2013-03-15T09:45:48Z</time>
      </trkpt>
      <trkpt lat="47.3223" lon="4.89787">
        <ele>330.794</ele>
        <time>2013-03-15T09:45:59Z</time>
      </trkpt>
      <trkpt lat="47.32243" lon="4.89782">
        <ele>330.043</ele>
        <time>2013-03-15T09:46:10Z</time>
      </trkpt>
      <trkpt lat="47.32258" lon="4.89788">
        <ele>331.138</ele>
        <time>2013-03-15T09:46:21Z</time>
      </trkpt>
      <trkpt lat="47.32272" lon="4.89798">
        <ele>333.944</ele>
        <time>2013-03-15T09:46:32Z</time>
      </trkpt>
      <trkpt lat="47.32283" lon="4.89805">
        <ele>334.485</ele>
        <time>2013-03-15T09:46:43Z</time>
      </trkpt>
      <trkpt lat="47.32298" lon="4.8981">
        <ele>334.725</ele>
        <time>2013-03-15T09:46:54Z</time>
      </trkpt>
      <trkpt lat="47.32313" lon="4.8982">
        <ele>336.558</ele>
        <time>2013-03-15T09:47:05Z</time>
      </trkpt>
      <trkpt lat="47.32328" lon="4.89825">
        <ele>337.819</ele>
        <time>2013-03-15T09:47:16Z</time>
      </trkpt>
      <trkpt lat="47.32343" lon="4.89832">
        <ele>340.565</ele>
        <time>2013-03-15T09:47:27Z</time>
      </trkpt>
      <trkpt lat="47.32357" lon="4.89833">
        <ele>344.145</ele>
        <time>2013-03-15T09:47:38Z</time>
      </trkpt>
      <trkpt lat="47.3237" lon="4.89838">
        <ele>346.831</ele>
        <time>2013-03-15T09:47:49Z</time>
      </trkpt>
      <trkpt lat="47.32383" lon="4.89842">
        <ele>349.831</ele>
        <time>2013-03-15T09:48:00Z</time>
      </trkpt>
      <trkpt lat="47.32397" lon="4.89847">
        <ele>350.984</ele>
        <time>2013-03-15T09:48:11Z</time>
      </trkpt>
      <trkpt lat="47.3241" lon="4.8985">
        <ele>352.507</ele>
        <time>2013-03-15T09:48:22Z</time>
      </trkpt>
      <trkpt lat="47.32425" lon="4.89855">
        <ele>353.71</ele>
        <time>2013-03-15T09:48:33Z</time>
      </trkpt>
      <trkpt lat="47.32438" lon="4.89858">
        <ele>353.412</ele>
        <time>2013-03-15T09:48:44Z</time>
      </trkpt>
      <trkpt lat="47.32453" lon="4.89862">
        <ele>354.427</ele>
        <time>2013-03-15T09:48:55Z</time>
      </trkpt>
      <trkpt lat="47.32468" lon="4.89867">
        <ele>355.422</ele>
        <time>2013-03-15T09:49:06Z</time>
      </trkpt>
      <trkpt lat="47.32483" lon="4.89873">
        <ele>356.106</ele>
        <time>2013-03-15T09:49:17Z</time>
      </trkpt>
      <trkpt lat="47.32495" lon="4.89878">
        <ele>356.142</ele>
        <time>2013-03-15T09:49:28Z</time>
      </trkpt>
      <trkpt lat="47.3251" lon="4.89887">
        <ele>354.253</ele>
        <time>2013-03-15T09:49:39Z</time>
      </trkpt>
      <trkpt lat="47.32525" lon="4.89893">
        <ele>355.641</ele>
        <time>2013-03-15T09:49:50Z</time>
      </trkpt>
      <trkpt lat="47.3254" lon="4.89903">
        <ele>356.343</ele>
        <time>2013-03-15T09:50:01Z</time>
      </trkpt>
      <trkpt lat="47.32553" lon="4.89908">
        <ele>359.054</ele>
        <time>2013-03-15T09:50:12Z</time>
      </trkpt>
      <trkpt lat="47.3257" lon="4.89912">
        <ele>360.364</ele>
        <time>2013-03-15T09:50:23Z</time>
      </trkpt>
      <trkpt lat="47.32585" lon="4.89912">
        <ele>360.323</ele>
        <time>2013-03-15T09:50:34Z</time>
      </trkpt>
      <trkpt lat="47.32602" lon="4.89913">
        <ele>361.628</ele>
        <time>2013-03-15T09:50:45Z</time>
      </trkpt>
      <trkpt lat="47.32617" lon="4.89915">
        <ele>361.24</ele>
        <time>2013-03-15T09:50:56Z</time>
      </trkpt>
      <trkpt lat="47.32632" lon="4.89915">
        <ele>361.787</ele>
        <time>2013-03-15T09:51:07Z</time>
      </trkpt>
      <trkpt lat="47.32645" lon="4.89918">
        <ele>362.941</ele>
        <time>2013-03-15T09:51:18Z</time>
      </trkpt>
      <trkpt lat="47.3266" lon="4.89922">
        <ele>364.32</ele>
        <time>2013-03-15T09:51:29Z</time>
      </trkpt>
      <trkpt lat="47.32675" lon="4.89923">
        <ele>364.286</ele>
        <time>2013-03-15T09:51:40Z</time>
      </trkpt>
      <trkpt lat="47.32688" lon="4.89922">
        <ele>363.886</ele>
        <time>2013-03-15T09:51:51Z</time>
      </trkpt>
      <trkpt lat="47.32703" lon="4.89918">
        <ele>363.911</ele>
        <time>2013-03-15T09:52:02Z</time>
      </trkpt>
      <trkpt lat="47.32718" lon="4.89918">
        <ele>365.335</ele>
        <time>2013-03-15T09:52:13Z</time>
      </trkpt>
      <trkpt lat="47.32735" lon="4.89917">
        <ele>366.031</ele>
        <time>2013-03-15T09:52:24Z</time>
      </trkpt>
      <trkpt lat="47.32752" lon="4.89915">
        <ele>366.29</ele>
        <time>2013-03-15T09:52:35Z</time>
      </trkpt>
      <trkpt lat="47.32767" lon="4.89913">
        <ele>367.418</ele>
        <time>2013-03-15T09:52:46Z</time>
      </trkpt>
      <trkpt lat="47.32768" lon="4.89912">
        <ele>367.767</ele>
        <time>2013-03-15T09:52:57Z</time>
      </trkpt>
      <trkpt lat="47.32768" lon="4.89912">
        <ele>367.92</ele>
        <time>2013-03-15T09:53:08Z</time>
      </trkpt>
      <trkpt lat="47.32768" lon="4.89912">
        <ele>367.92</ele>
        <time>2013-03-15T09:53:19Z</time>
      </trkpt>
      <trkpt lat="47.3277" lon="4.89912">
        <ele>367.812</ele>
        <time>2013-03-15T09:53:30Z</time>
      </trkpt>
      <trkpt lat="47.3277" lon="4.89912">
        <ele>367.516</ele>
        <time>2013-03-15T09:53:41Z</time>
      </trkpt>
      <trkpt lat="47.32785" lon="4.89912">
        <ele>367.242</ele>
        <time>2013-03-15T09:53:52Z</time>
      </trkpt>
      <trkpt lat="47.32798" lon="4.89908">
        <ele>367.173</ele>
        <time>2013-03-15T09:54:03Z</time>
      </trkpt>
      <trkpt lat="47.32813" lon="4.89908">
        <ele>369.103</ele>
        <time>2013-03-15T09:54:14Z</time>
      </trkpt>
      <trkpt lat="47.3283" lon="4.89905">
        <ele>370.106</ele>
        <time>2013-03-15T09:54:25Z</time>
      </trkpt>
      <trkpt lat="47.32847" lon="4.89905">
        <ele>369.386</ele>
        <time>2013-03-15T09:54:36Z</time>
      </trkpt>
      <trkpt lat="47.32863" lon="4.89908">
        <ele>369.517</ele>
        <time>2013-03-15T09:54:47Z</time>
      </trkpt>
      <trkpt lat="47.32878" lon="4.89912">
        <ele>368.178</ele>
        <time>2013-03-15T09:54:58Z</time>
      </trkpt>
      <trkpt lat="47.32892" lon="4.8992">
        <ele>367.792</ele>
        <time>2013-03-15T09:55:09Z</time>
      </trkpt>
      <trkpt lat="47.32908" lon="4.89925">
        <ele>367.403</ele>
        <time>2013-03-15T09:55:20Z</time>
      </trkpt>
      <trkpt lat="47.32925" lon="4.89928">
        <ele>365.941</ele>
        <time>2013-03-15T09:55:31Z</time>
      </trkpt>
      <trkpt lat="47.32938" lon="4.89932">
        <ele>367.12</ele>
        <time>2013-03-15T09:55:42Z</time>
      </trkpt>
      <trkpt lat="47.32957" lon="4.89935">
        <ele>366.368</ele>
        <time>2013-03-15T09:55:53Z</time>
      </trkpt>
      <trkpt lat="47.32973" lon="4.8994">
        <ele>366.186</ele>
        <time>2013-03-15T09:56:04Z</time>
      </trkpt>
      <trkpt lat="47.32987" lon="4.89945">
        <ele>367.559</ele>
        <time>2013-03-15T09:56:15Z</time>
      </trkpt>
      <trkpt lat="47.33003" lon="4.8995">
        <ele>368.653</ele>
        <time>2013-03-15T09:56:26Z</time>
      </trkpt>
      <trkpt lat="47.33017" lon="4.89948">
        <ele>369.334</ele>
        <time>2013-03-15T09:56:37Z</time>
      </trkpt>
      <trkpt lat="47.33023" lon="4.89932">
        <ele>370.383</ele>
        <time>2013-03-15T09:56:48Z</time>
      </trkpt>
      <trkpt lat="47.33027" lon="4.89902">
        <ele>369.887</ele>
        <time>2013-03-15T09:56:59Z</time>
      </trkpt>
      <trkpt lat="47.33028" lon="4.89877">
        <ele>370.792</ele>
        <time>2013-03-15T09:57:10Z</time>
      </trkpt>
      <trkpt lat="47.3303" lon="4.89855">
        <ele>372.511</ele>
        <time>2013-03-15T09:57:21Z</time>
      </trkpt>
      <trkpt lat="47.33035" lon="4.89837">
        <ele>372.329</ele>
        <time>2013-03-15T09:57:32Z</time>
      </trkpt>
      <trkpt lat="47.3304" lon="4.89817">
        <ele>373.019</ele>
        <time>2013-03-15T09:57:43Z</time>
      </trkpt>
      <trkpt lat="47.33043" lon="4.89797">
        <ele>371.959</ele>
        <time>2013-03-15T09:57:54Z</time>
      </trkpt>
      <trkpt lat="47.33048" lon="4.89773">
        <ele>371.357</ele>
        <time>2013-03-15T09:58:05Z</time>
      </trkpt>
      <trkpt lat="47.3305" lon="4.89765">
        <ele>372.366</ele>
        <time>2013-03-15T09:58:16Z</time>
      </trkpt>
      <trkpt lat="47.33058" lon="4.89768">
        <ele>372.258</ele>
        <time>2013-03-15T09:58:27Z</time>
      </trkpt>
      <trkpt lat="47.33077" lon="4.89775">
        <ele>371.706</ele>
        <time>2013-03-15T09:58:38Z</time>
      </trkpt>
      <trkpt lat="47.33088" lon="4.89777">
        <ele>372.048</ele>
        <time>2013-03-15T09:58:49Z</time>
      </trkpt>
      <trkpt lat="47.33107" lon="4.89778">
        <ele>372.069</ele>
        <time>2013-03-15T09:59:00Z</time>
      </trkpt>
      <trkpt lat="47.3312" lon="4.89783">
        <ele>373.016</ele>
        <time>2013-03-15T09:59:11Z</time>
      </trkpt>
      <trkpt lat="47.33135" lon="4.89788">
        <ele>374.281</ele>
        <time>2013-03-15T09:59:22Z</time>
      </trkpt>
      <trkpt lat="47.33152" lon="4.89792">
        <ele>374.762</ele>
        <time>2013-03-15T09:59:33Z</time>
      </trkpt>
      <trkpt lat="47.33168" lon="4.898">
        <ele>374.817</ele>
        <time>2013-03-15T09:59:44Z</time>
      </trkpt>
      <trkpt lat="47.33187" lon="4.89803">
        <ele>374.709</ele>
        <time>2013-03-15T09:59:55Z</time>
      </trkpt>
      <trkpt lat="47.33203" lon="4.89808">
        <ele>374.479</ele>
        <time>2013-03-15T10:00:06Z</time>
      </trkpt>
      <trkpt lat="47.33218" lon="4.89808">
        <ele>373.355</ele>
        <time>2013-03-15T10:00:17Z</time>
      </trkpt>
      <trkpt lat="47.33232" lon="4.89808">
        <ele>374.223</ele>
        <time>2013-03-15T10:00:28Z</time>
      </trkpt>
      <trkpt lat="47.33243" lon="4.89803">
        <ele>375.587</ele>
        <time>2013-03-15T10:00:39Z</time>
      </trkpt>
      <trkpt lat="47.33263" lon="4.89802">
        <ele>376.521</ele>
        <time>2013-03-15T10:00:50Z</time>
      </trkpt>
      <trkpt lat="47.33282" lon="4.89802">
        <ele>375.941</ele>
        <time>2013-03-15T10:01:01Z</time>
      </trkpt>
      <trkpt lat="47.33292" lon="4.89807">
        <ele>374.305</ele>
        <time>2013-03-15T10:01:12Z</time>
      </trkpt>
      <trkpt lat="47.33307" lon="4.89813">
        <ele>373.948</ele>
        <time>2013-03-15T10:01:23Z</time>
      </trkpt>
      <trkpt lat="47.33322" lon="4.89828">
        <ele>375.987</ele>
        <time>2013-03-15T10:01:34Z</time>
      </trkpt>
      <trkpt lat="47.33337" lon="4.89838">
        <ele>377.404</ele>
        <time>2013-03-15T10:01:45Z</time>
      </trkpt>
      <trkpt lat="47.33352" lon="4.8984">
        <ele>377.301</ele>
        <time>2013-03-15T10:01:56Z</time>
      </trkpt>
      <trkpt lat="47.33367" lon="4.89845">
        <ele>379.155</ele>
        <time>2013-03-15T10:02:07Z</time>
      </trkpt>
      <trkpt lat="47.33383" lon="4.89853">
        <ele>380.714</ele>
        <time>2013-03-15T10:02:18Z</time>
      </trkpt>
      <trkpt lat="47.33395" lon="4.89872">
        <ele>381.848</ele>
        <time>2013-03-15T10:02:29Z</time>
      </trkpt>
      <trkpt lat="47.33407" lon="4.8989">
        <ele>383.921</ele>
        <time>2013-03-15T10:02:40Z</time>
      </trkpt>
      <trkpt lat="47.33423" lon="4.89902">
        <ele>382.942</ele>
        <time>2013-03-15T10:02:51Z</time>
      </trkpt>
      <trkpt lat="47.3344" lon="4.89905">
        <ele>380.869</ele>
        <time>2013-03-15T10:03:02Z</time>
      </trkpt>
      <trkpt lat="47.3345" lon="4.89908">
        <ele>381.642</ele>
        <time>2013-03-15T10:03:13Z</time>
      </trkpt>
      <trkpt lat="47.33463" lon="4.89908">
        <ele>382.136</ele>
        <time>2013-03-15T10:03:24Z</time>
      </trkpt>
      <trkpt lat="47.33477" lon="4.89908">
        <ele>382.308</ele>
        <time>2013-03-15T10:03:35Z</time>
      </trkpt>
      <trkpt lat="47.33492" lon="4.89903">
        <ele>381.634</ele>
        <time>2013-03-15T10:03:46Z</time>
      </trkpt>
      <trkpt lat="47.33513" lon="4.89895">
        <ele>380.083</ele>
        <time>2013-03-15T10:03:57Z</time>
      </trkpt>
      <trkpt lat="47.33533" lon="4.89888">
        <ele>376.847</ele>
        <time>2013-03-15T10:04:08Z</time>
      </trkpt>
      <trkpt lat="47.33552" lon="4.89882">
        <ele>375.301</ele>
        <time>2013-03-15T10:04:19Z</time>
      </trkpt>
      <trkpt lat="47.33567" lon="4.89875">
        <ele>375.203</ele>
        <time>2013-03-15T10:04:30Z</time>
      </trkpt>
      <trkpt lat="47.33583" lon="4.89872">
        <ele>373.238</ele>
        <time>2013-03-15T10:04:41Z</time>
      </trkpt>
      <trkpt lat="47.33602" lon="4.89872">
        <ele>373.013</ele>
        <time>2013-03-15T10:04:52Z</time>
      </trkpt>
      <trkpt lat="47.33617" lon="4.89872">
        <ele>373.617</ele>
        <time>2013-03-15T10:05:03Z</time>
      </trkpt>
      <trkpt lat="47.33632" lon="4.89873">
        <ele>376.193</ele>
        <time>2013-03-15T10:05:14Z</time>
      </trkpt>
      <trkpt lat="47.33648" lon="4.89873">
        <ele>376.618</ele>
        <time>2013-03-15T10:05:25Z</time>
      </trkpt>
      <trkpt lat="47.33663" lon="4.89873">
        <ele>378.642</ele>
        <time>2013-03-15T10:05:36Z</time>
      </trkpt>
      <trkpt lat="47.33678" lon="4.89875">
        <ele>378.698</ele>
        <time>2013-03-15T10:05:47Z</time>
      </trkpt>
      <trkpt lat="47.33697" lon="4.8988">
        <ele>379.125</ele>
        <time>2013-03-15T10:05:58Z</time>
      </trkpt>
      <trkpt lat="47.33713" lon="4.89888">
        <ele>380.178</ele>
        <time>2013-03-15T10:06:09Z</time>
      </trkpt>
      <trkpt lat="47.33728" lon="4.89897">
        <ele>382.897</ele>
        <time>2013-03-15T10:06:20Z</time>
      </trkpt>
      <trkpt lat="47.33743" lon="4.89908">
        <ele>384.067</ele>
        <time>2013-03-15T10:06:31Z</time>
      </trkpt>
      <trkpt lat="47.33757" lon="4.89922">
        <ele>383.938</ele>
        <time>2013-03-15T10:06:42Z</time>
      </trkpt>
      <trkpt lat="47.33757" lon="4.89922">
        <ele>384.954</ele>
        <time>2013-03-15T10:06:53Z</time>
      </trkpt>
      <trkpt lat="47.33757" lon="4.89922">
        <ele>384.917</ele>
        <time>2013-03-15T10:07:04Z</time>
      </trkpt>
      <trkpt lat="47.33757" lon="4.8992">
        <ele>385.349</ele>
        <time>2013-03-15T10:07:15Z</time>
      </trkpt>
      <trkpt lat="47.33758" lon="4.89922">
        <ele>385.851</ele>
        <time>2013-03-15T10:07:26Z</time>
      </trkpt>
      <trkpt lat="47.33768" lon="4.89927">
        <ele>385.796</ele>
        <time>2013-03-15T10:07:37Z</time>
      </trkpt>
      <trkpt lat="47.33772" lon="4.89927">
        <ele>387.143</ele>
        <time>2013-03-15T10:07:48Z</time>
      </trkpt>
      <trkpt lat="47.33788" lon="4.89932">
        <ele>385.476</ele>
        <time>2013-03-15T10:07:59Z</time>
      </trkpt>
      <trkpt lat="47.33802" lon="4.89935">
        <ele>385.478</ele>
        <time>2013-03-15T10:08:10Z</time>
      </trkpt>
      <trkpt lat="47.33817" lon="4.89933">
        <ele>382.11</ele>
        <time>2013-03-15T10:08:21Z</time>
      </trkpt>
      <trkpt lat="47.33835" lon="4.8993">
        <ele>380.644</ele>
        <time>2013-03-15T10:08:32Z</time>
      </trkpt>
      <trkpt lat="47.33852" lon="4.89925">
        <ele>381.402</ele>
        <time>2013-03-15T10:08:43Z</time>
      </trkpt>
      <trkpt lat="47.33867" lon="4.89925">
        <ele>380.922</ele>
        <time>2013-03-15T10:08:54Z</time>
      </trkpt>
      <trkpt lat="47.33882" lon="4.89927">
        <ele>380.529</ele>
        <time>2013-03-15T10:09:05Z</time>
      </trkpt>
      <trkpt lat="47.3389" lon="4.89927">
        <ele>381.458</ele>
        <time>2013-03-15T10:09:16Z</time>
      </trkpt>
      <trkpt lat="47.33908" lon="4.89937">
        <ele>381.212</ele>
        <time>2013-03-15T10:09:27Z</time>
      </trkpt>
      <trkpt lat="47.33923" lon="4.8995">
        <ele>381.702</ele>
        <time>2013-03-15T10:09:38Z</time>
      </trkpt>
      <trkpt lat="47.33938" lon="4.89962">
        <ele>384.033</ele>
        <time>2013-03-15T10:09:49Z</time>
      </trkpt>
      <trkpt lat="47.33953" lon="4.89973">
        <ele>387.226</ele>
        <time>2013-03-15T10:10:00Z</time>
      </trkpt>
      <trkpt lat="47.33967" lon="4.89983">
        <ele>386.648</ele>
        <time>2013-03-15T10:10:11Z</time>
      </trkpt>
      <trkpt lat="47.3398" lon="4.89995">
        <ele>388.951</ele>
        <time>2013-03-15T10:10:22Z</time>
      </trkpt>
      <trkpt lat="47.3399" lon="4.90003">
        <ele>389.45</ele>
        <time>2013-03-15T10:10:33Z</time>
      </trkpt>
      <trkpt lat="47.34" lon="4.90012">
        <ele>390.051</ele>
        <time>2013-03-15T10:10:44Z</time>
      </trkpt>
      <trkpt lat="47.3401" lon="4.90028">
        <ele>388.809</ele>
        <time>2013-03-15T10:10:55Z</time>
      </trkpt>
      <trkpt lat="47.34018" lon="4.90035">
        <ele>388.336</ele>
        <time>2013-03-15T10:11:06Z</time>
      </trkpt>
      <trkpt lat="47.3402" lon="4.90037">
        <ele>388.569</ele>
        <time>2013-03-15T10:11:17Z</time>
      </trkpt>
      <trkpt lat="47.3402" lon="4.90037">
        <ele>388.569</ele>
        <time>2013-03-15T10:11:28Z</time>
      </trkpt>
      <trkpt lat="47.3402" lon="4.90037">
        <ele>388.593</ele>
        <time>2013-03-15T10:11:39Z</time>
      </trkpt>
      <trkpt lat="47.3402" lon="4.90037">
        <ele>389.364</ele>
        <time>2013-03-15T10:11:50Z</time>
      </trkpt>
      <trkpt lat="47.3402" lon="4.90037">
        <ele>389.364</ele>
        <time>2013-03-15T10:12:01Z</time>
      </trkpt>
      <trkpt lat="47.3402" lon="4.90037">
        <ele>389.421</ele>
        <time>2013-03-15T10:12:12Z</time>
      </trkpt>
      <trkpt lat="47.3402" lon="4.90037">
        <ele>389.421</ele>
        <time>2013-03-15T10:12:23Z</time>
      </trkpt>
      <trkpt lat="47.3402" lon="4.90037">
        <ele>389.421</ele>
        <time>2013-03-15T10:12:34Z</time>
      </trkpt>
      <trkpt lat="47.3402" lon="4.90037">
        <ele>389.421</ele>
        <time>2013-03-15T10:12:45Z</time>
      </trkpt>
      <trkpt lat="47.3403" lon="4.90042">
        <ele>388.399</ele>
        <time>2013-03-15T10:12:56Z</time>
      </trkpt>
      <trkpt lat="47.34043" lon="4.9005">
        <ele>388.608</ele>
        <time>2013-03-15T10:13:07Z</time>
      </trkpt>
      <trkpt lat="47.34053" lon="4.90055">
        <ele>388.717</ele>
        <time>2013-03-15T10:13:18Z</time>
      </trkpt>
      <trkpt lat="47.34065" lon="4.90057">
        <ele>388.584</ele>
        <time>2013-03-15T10:13:29Z</time>
      </trkpt>
      <trkpt lat="47.34077" lon="4.90057">
        <ele>390.278</ele>
        <time>2013-03-15T10:13:40Z</time>
      </trkpt>
      <trkpt lat="47.34095" lon="4.90057">
        <ele>386.046</ele>
        <time>2013-03-15T10:13:51Z</time>
      </trkpt>
      <trkpt lat="47.3411" lon="4.90055">
        <ele>382.375</ele>
        <time>2013-03-15T10:14:02Z</time>
      </trkpt>
      <trkpt lat="47.34133" lon="4.90058">
        <ele>378.77</ele>
        <time>2013-03-15T10:14:13Z</time>
      </trkpt>
      <trkpt lat="47.34147" lon="4.9006">
        <ele>375.851</ele>
        <time>2013-03-15T10:14:24Z</time>
      </trkpt>
      <trkpt lat="47.34158" lon="4.9006">
        <ele>378.436</ele>
        <time>2013-03-15T10:14:35Z</time>
      </trkpt>
      <trkpt lat="47.34165" lon="4.90062">
        <ele>379.507</ele>
        <time>2013-03-15T10:14:46Z</time>
      </trkpt>
      <trkpt lat="47.3418" lon="4.90057">
        <ele>381.324</ele>
        <time>2013-03-15T10:14:57Z</time>
      </trkpt>
      <trkpt lat="47.3419" lon="4.90058">
        <ele>381.422</ele>
        <time>2013-03-15T10:15:08Z</time>
      </trkpt>
      <trkpt lat="47.34203" lon="4.9006">
        <ele>381.669</ele>
        <time>2013-03-15T10:15:19Z</time>
      </trkpt>
      <trkpt lat="47.3422" lon="4.9006">
        <ele>381.166</ele>
        <time>2013-03-15T10:15:30Z</time>
      </trkpt>
      <trkpt lat="47.34232" lon="4.90063">
        <ele>380.872</ele>
        <time>2013-03-15T10:15:41Z</time>
      </trkpt>
      <trkpt lat="47.34247" lon="4.90062">
        <ele>381.675</ele>
        <time>2013-03-15T10:15:52Z</time>
      </trkpt>
      <trkpt lat="47.34265" lon="4.90055">
        <ele>379.953</ele>
        <time>2013-03-15T10:16:03Z</time>
      </trkpt>
      <trkpt lat="47.34275" lon="4.90055">
        <ele>379.916</ele>
        <time>2013-03-15T10:16:14Z</time>
      </trkpt>
      <trkpt lat="47.34288" lon="4.9005">
        <ele>379.153</ele>
        <time>2013-03-15T10:16:25Z</time>
      </trkpt>
      <trkpt lat="47.34307" lon="4.9005">
        <ele>380.057</ele>
        <time>2013-03-15T10:16:36Z</time>
      </trkpt>
      <trkpt lat="47.34327" lon="4.9005">
        <ele>380.47</ele>
        <time>2013-03-15T10:16:47Z</time>
      </trkpt>
      <trkpt lat="47.34338" lon="4.90048">
        <ele>380.675</ele>
        <time>2013-03-15T10:16:58Z</time>
      </trkpt>
      <trkpt lat="47.34348" lon="4.90047">
        <ele>379.294</ele>
        <time>2013-03-15T10:17:09Z</time>
      </trkpt>
      <trkpt lat="47.34362" lon="4.9005">
        <ele>376.34</ele>
        <time>2013-03-15T10:17:20Z</time>
      </trkpt>
      <trkpt lat="47.3438" lon="4.90058">
        <ele>375.984</ele>
        <time>2013-03-15T10:17:31Z</time>
      </trkpt>
      <trkpt lat="47.34397" lon="4.90068">
        <ele>376.929</ele>
        <time>2013-03-15T10:17:42Z</time>
      </trkpt>
      <trkpt lat="47.3441" lon="4.90075">
        <ele>377.475</ele>
        <time>2013-03-15T10:17:53Z</time>
      </trkpt>
      <trkpt lat="47.34423" lon="4.90085">
        <ele>379.204</ele>
        <time>2013-03-15T10:18:04Z</time>
      </trkpt>
      <trkpt lat="47.3444" lon="4.90093">
        <ele>381.829</ele>
        <time>2013-03-15T10:18:15Z</time>
      </trkpt>
      <trkpt lat="47.34453" lon="4.90108">
        <ele>383.358</ele>
        <time>2013-03-15T10:18:26Z</time>
      </trkpt>
      <trkpt lat="47.34465" lon="4.90127">
        <ele>386.064</ele>
        <time>2013-03-15T10:18:37Z</time>
      </trkpt>
      <trkpt lat="47.34478" lon="4.90142">
        <ele>387.601</ele>
        <time>2013-03-15T10:18:48Z</time>
      </trkpt>
      <trkpt lat="47.34492" lon="4.90155">
        <ele>387.446</ele>
        <time>2013-03-15T10:18:59Z</time>
      </trkpt>
      <trkpt lat="47.34503" lon="4.90172">
        <ele>387.233</ele>
        <time>2013-03-15T10:19:10Z</time>
      </trkpt>
      <trkpt lat="47.34515" lon="4.90187">
        <ele>387.814</ele>
        <time>2013-03-15T10:19:21Z</time>
      </trkpt>
      <trkpt lat="47.34525" lon="4.90198">
        <ele>389.57</ele>
        <time>2013-03-15T10:19:32Z</time>
      </trkpt>
      <trkpt lat="47.34537" lon="4.90213">
        <ele>390.661</ele>
        <time>2013-03-15T10:19:43Z</time>
      </trkpt>
      <trkpt lat="47.34548" lon="4.90227">
        <ele>390.717</ele>
        <time>2013-03-15T10:19:54Z</time>
      </trkpt>
      <trkpt lat="47.34562" lon="4.90237">
        <ele>390.824</ele>
        <time>2013-03-15T10:20:05Z</time>
      </trkpt>
      <trkpt lat="47.34572" lon="4.90243">
        <ele>391.522</ele>
        <time>2013-03-15T10:20:16Z</time>
      </trkpt>
      <trkpt lat="47.3458" lon="4.90247">
        <ele>391.25</ele>
        <time>2013-03-15T10:20:27Z</time>
      </trkpt>
      <trkpt lat="47.3459" lon="4.90263">
        <ele>391.584</ele>
        <time>2013-03-15T10:20:38Z</time>
      </trkpt>
      <trkpt lat="47.34598" lon="4.90282">
        <ele>391.987</ele>
        <time>2013-03-15T10:20:49Z</time>
      </trkpt>
      <trkpt lat="47.34605" lon="4.90302">
        <ele>391.8</ele>
        <time>2013-03-15T10:21:00Z</time>
      </trkpt>
      <trkpt lat="47.34608" lon="4.9032">
        <ele>394.159</ele>
        <time>2013-03-15T10:21:11Z</time>
      </trkpt>
      <trkpt lat="47.34612" lon="4.90338">
        <ele>395.58</ele>
        <time>2013-03-15T10:21:22Z</time>
      </trkpt>
      <trkpt lat="47.34612" lon="4.90357">
        <ele>397.528</ele>
        <time>2013-03-15T10:21:33Z</time>
      </trkpt>
      <trkpt lat="47.34613" lon="4.90378">
        <ele>399.852</ele>
        <time>2013-03-15T10:21:44Z</time>
      </trkpt>
      <trkpt lat="47.34612" lon="4.904">
        <ele>397.506</ele>
        <time>2013-03-15T10:21:55Z</time>
      </trkpt>
      <trkpt lat="47.34617" lon="4.90423">
        <ele>398.488</ele>
        <time>2013-03-15T10:22:06Z</time>
      </trkpt>
      <trkpt lat="47.34622" lon="4.90443">
        <ele>399.856</ele>
        <time>2013-03-15T10:22:17Z</time>
      </trkpt>
      <trkpt lat="47.34623" lon="4.90463">
        <ele>399.965</ele>
        <time>2013-03-15T10:22:28Z</time>
      </trkpt>
      <trkpt lat="47.34628" lon="4.90483">
        <ele>402.772</ele>
        <time>2013-03-15T10:22:39Z</time>
      </trkpt>
      <trkpt lat="47.34633" lon="4.90503">
        <ele>404.119</ele>
        <time>2013-03-15T10:22:50Z</time>
      </trkpt>
      <trkpt lat="47.34638" lon="4.90528">
        <ele>404.87</ele>
        <time>2013-03-15T10:23:01Z</time>
      </trkpt>
      <trkpt lat="47.3464" lon="4.9055">
        <ele>405.466</ele>
        <time>2013-03-15T10:23:12Z</time>
      </trkpt>
      <trkpt lat="47.3464" lon="4.90572">
        <ele>404.973</ele>
        <time>2013-03-15T10:23:23Z</time>
      </trkpt>
      <trkpt lat="47.34643" lon="4.90592">
        <ele>408.239</ele>
        <time>2013-03-15T10:23:34Z</time>
      </trkpt>
      <trkpt lat="47.34647" lon="4.90612">
        <ele>411.864</ele>
        <time>2013-03-15T10:23:45Z</time>
      </trkpt>
      <trkpt lat="47.34638" lon="4.90628">
        <ele>414.878</ele>
        <time>2013-03-15T10:23:56Z</time>
      </trkpt>
      <trkpt lat="47.34628" lon="4.90642">
        <ele>418.117</ele>
        <time>2013-03-15T10:24:07Z</time>
      </trkpt>
      <trkpt lat="47.34623" lon="4.90655">
        <ele>421.638</ele>
        <time>2013-03-15T10:24:18Z</time>
      </trkpt>
      <trkpt lat="47.34612" lon="4.90678">
        <ele>423.372</ele>
        <time>2013-03-15T10:24:29Z</time>
      </trkpt>
      <trkpt lat="47.34602" lon="4.90695">
        <ele>421.736</ele>
        <time>2013-03-15T10:24:40Z</time>
      </trkpt>
      <trkpt lat="47.34592" lon="4.9071">
        <ele>420.896</ele>
        <time>2013-03-15T10:24:51Z</time>
      </trkpt>
      <trkpt lat="47.34583" lon="4.90732">
        <ele>418.373</ele>
        <time>2013-03-15T10:25:02Z</time>
      </trkpt>
      <trkpt lat="47.3458" lon="4.9074">
        <ele>419.04</ele>
        <time>2013-03-15T10:25:13Z</time>
      </trkpt>
      <trkpt lat="47.3458" lon="4.9074">
        <ele>419.04</ele>
        <time>2013-03-15T10:25:24Z</time>
      </trkpt>
      <trkpt lat="47.3458" lon="4.9074">
        <ele>419.04</ele>
        <time>2013-03-15T10:25:35Z</time>
      </trkpt>
      <trkpt lat="47.3458" lon="4.9074">
        <ele>418.611</ele>
        <time>2013-03-15T10:25:46Z</time>
      </trkpt>
      <trkpt lat="47.3458" lon="4.9074">
        <ele>418.611</ele>
        <time>2013-03-15T10:25:57Z</time>
      </trkpt>
      <trkpt lat="47.3458" lon="4.9074">
        <ele>418.413</ele>
        <time>2013-03-15T10:26:08Z</time>
      </trkpt>
      <trkpt lat="47.3458" lon="4.9074">
        <ele>418.413</ele>
        <time>2013-03-15T10:26:19Z</time>
      </trkpt>
      <trkpt lat="47.3458" lon="4.9074">
        <ele>418.413</ele>
        <time>2013-03-15T10:26:30Z</time>
      </trkpt>
      <trkpt lat="47.3458" lon="4.9074">
        <ele>418.413</ele>
        <time>2013-03-15T10:26:41Z</time>
      </trkpt>
      <trkpt lat="47.3458" lon="4.9074">
        <ele>418.413</ele>
        <time>2013-03-15T10:26:52Z</time>
      </trkpt>
      <trkpt lat="47.3458" lon="4.9074">
        <ele>418.528</ele>
        <time>2013-03-15T10:27:03Z</time>
      </trkpt>
      <trkpt lat="47.3458" lon="4.9074">
        <ele>418.528</ele>
        <time>2013-03-15T10:27:14Z</time>
      </trkpt>
      <trkpt lat="47.3458" lon="4.9074">
        <ele>418.528</ele>
        <time>2013-03-15T10:27:25Z</time>
      </trkpt>
      <trkpt lat="47.3458" lon="4.9074">
        <ele>418.528</ele>
        <time>2013-03-15T10:27:36Z</time>
      </trkpt>
      <trkpt lat="47.3458" lon="4.9074">
        <ele>418.528</ele>
        <time>2013-03-15T10:27:47Z</time>
      </trkpt>
      <trkpt lat="47.3458" lon="4.9074">
        <ele>418.528</ele>
        <time>2013-03-15T10:27:58Z</time>
      </trkpt>
      <trkpt lat="47.3458" lon="4.9074">
        <ele>418.528</ele>
        <time>2013-03-15T10:28:09Z</time>
      </trkpt>
      <trkpt lat="47.34577" lon="4.90753">
        <ele>418.506</ele>
        <time>2013-03-15T10:28:20Z</time>
      </trkpt>
      <trkpt lat="47.34583" lon="4.90765">
        <ele>417.952</ele>
        <time>2013-03-15T10:28:31Z</time>
      </trkpt>
      <trkpt lat="47.3459" lon="4.90782">
        <ele>413.702</ele>
        <time>2013-03-15T10:28:42Z</time>
      </trkpt>
      <trkpt lat="47.34598" lon="4.90793">
        <ele>414.693</ele>
        <time>2013-03-15T10:28:53Z</time>
      </trkpt>
      <trkpt lat="47.34613" lon="4.90807">
        <ele>415.118</ele>
        <time>2013-03-15T10:29:04Z</time>
      </trkpt>
      <trkpt lat="47.34628" lon="4.90825">
        <ele>414.726</ele>
        <time>2013-03-15T10:29:15Z</time>
      </trkpt>
      <trkpt lat="47.3464" lon="4.90843">
        <ele>413.547</ele>
        <time>2013-03-15T10:29:26Z</time>
      </trkpt>
      <trkpt lat="47.34653" lon="4.90857">
        <ele>413.549</ele>
        <time>2013-03-15T10:29:37Z</time>
      </trkpt>
      <trkpt lat="47.34648" lon="4.90868">
        <ele>413.957</ele>
        <time>2013-03-15T10:29:48Z</time>
      </trkpt>
      <trkpt lat="47.34638" lon="4.90885">
        <ele>412.355</ele>
        <time>2013-03-15T10:29:59Z</time>
      </trkpt>
      <trkpt lat="47.34632" lon="4.90902">
        <ele>411.166</ele>
        <time>2013-03-15T10:30:10Z</time>
      </trkpt>
      <trkpt lat="47.34622" lon="4.90915">
        <ele>412.502</ele>
        <time>2013-03-15T10:30:21Z</time>
      </trkpt>
      <trkpt lat="47.34618" lon="4.9094">
        <ele>409.832</ele>
        <time>2013-03-15T10:30:32Z</time>
      </trkpt>
      <trkpt lat="47.3461" lon="4.90962">
        <ele>409.146</ele>
        <time>2013-03-15T10:30:43Z</time>
      </trkpt>
      <trkpt lat="47.34602" lon="4.9098">
        <ele>405.955</ele>
        <time>2013-03-15T10:30:54Z</time>
      </trkpt>
      <trkpt lat="47.34595" lon="4.90995">
        <ele>405.663</ele>
        <time>2013-03-15T10:31:05Z</time>
      </trkpt>
      <trkpt lat="47.3459" lon="4.9101">
        <ele>405.139</ele>
        <time>2013-03-15T10:31:16Z</time>
      </trkpt>
      <trkpt lat="47.34585" lon="4.9103">
        <ele>403.457</ele>
        <time>2013-03-15T10:31:27Z</time>
      </trkpt>
      <trkpt lat="47.34583" lon="4.9106">
        <ele>398.906</ele>
        <time>2013-03-15T10:31:38Z</time>
      </trkpt>
      <trkpt lat="47.34585" lon="4.91088">
        <ele>393.726</ele>
        <time>2013-03-15T10:31:49Z</time>
      </trkpt>
      <trkpt lat="47.34585" lon="4.91117">
        <ele>391.487</ele>
        <time>2013-03-15T10:32:00Z</time>
      </trkpt>
      <trkpt lat="47.34578" lon="4.91133">
        <ele>390.379</ele>
        <time>2013-03-15T10:32:11Z</time>
      </trkpt>
      <trkpt lat="47.3457" lon="4.91152">
        <ele>393.647</ele>
        <time>2013-03-15T10:32:22Z</time>
      </trkpt>
      <trkpt lat="47.34562" lon="4.91173">
        <ele>394.071</ele>
        <time>2013-03-15T10:32:33Z</time>
      </trkpt>
      <trkpt lat="47.3456" lon="4.91202">
        <ele>391.52</ele>
        <time>2013-03-15T10:32:44Z</time>
      </trkpt>
      <trkpt lat="47.34555" lon="4.91223">
        <ele>389.038</ele>
        <time>2013-03-15T10:32:55Z</time>
      </trkpt>
      <trkpt lat="47.34562" lon="4.91248">
        <ele>384.745</ele>
        <time>2013-03-15T10:33:06Z</time>
      </trkpt>
      <trkpt lat="47.34565" lon="4.91273">
        <ele>383.448</ele>
        <time>2013-03-15T10:33:17Z</time>
      </trkpt>
      <trkpt lat="47.34565" lon="4.91302">
        <ele>381.595</ele>
        <time>2013-03-15T10:33:28Z</time>
      </trkpt>
      <trkpt lat="47.34567" lon="4.91328">
        <ele>381.236</ele>
        <time>2013-03-15T10:33:39Z</time>
      </trkpt>
      <trkpt lat="47.34565" lon="4.91338">
        <ele>381.587</ele>
        <time>2013-03-15T10:33:50Z</time>
      </trkpt>
      <trkpt lat="47.34567" lon="4.91365">
        <ele>380.971</ele>
        <time>2013-03-15T10:34:01Z</time>
      </trkpt>
      <trkpt lat="47.34567" lon="4.91395">
        <ele>375.731</ele>
        <time>2013-03-15T10:34:12Z</time>
      </trkpt>
      <trkpt lat="47.34565" lon="4.91418">
        <ele>374.123</ele>
        <time>2013-03-15T10:34:23Z</time>
      </trkpt>
      <trkpt lat="47.34565" lon="4.91447">
        <ele>370.918</ele>
        <time>2013-03-15T10:34:34Z</time>
      </trkpt>
      <trkpt lat="47.34563" lon="4.9147">
        <ele>367.225</ele>
        <time>2013-03-15T10:34:45Z</time>
      </trkpt>
      <trkpt lat="47.3456" lon="4.91495">
        <ele>365.012</ele>
        <time>2013-03-15T10:34:56Z</time>
      </trkpt>
      <trkpt lat="47.3456" lon="4.91518">
        <ele>363.965</ele>
        <time>2013-03-15T10:35:07Z</time>
      </trkpt>
      <trkpt lat="47.34568" lon="4.9154">
        <ele>364.141</ele>
        <time>2013-03-15T10:35:18Z</time>
      </trkpt>
      <trkpt lat="47.34573" lon="4.91565">
        <ele>364.446</ele>
        <time>2013-03-15T10:35:29Z</time>
      </trkpt>
      <trkpt lat="47.34582" lon="4.91587">
        <ele>361.243</ele>
        <time>2013-03-15T10:35:40Z</time>
      </trkpt>
      <trkpt lat="47.34575" lon="4.91605">
        <ele>358.852</ele>
        <time>2013-03-15T10:35:51Z</time>
      </trkpt>
      <trkpt lat="47.34577" lon="4.9163">
        <ele>358.755</ele>
        <time>2013-03-15T10:36:02Z</time>
      </trkpt>
      <trkpt lat="47.34582" lon="4.91655">
        <ele>358.797</ele>
        <time>2013-03-15T10:36:13Z</time>
      </trkpt>
      <trkpt lat="47.34585" lon="4.91678">
        <ele>359.168</ele>
        <time>2013-03-15T10:36:24Z</time>
      </trkpt>
      <trkpt lat="47.34593" lon="4.917">
        <ele>356.517</ele>
        <time>2013-03-15T10:36:35Z</time>
      </trkpt>
      <trkpt lat="47.34603" lon="4.91723">
        <ele>356.727</ele>
        <time>2013-03-15T10:36:46Z</time>
      </trkpt>
      <trkpt lat="47.3461" lon="4.91747">
        <ele>356.188</ele>
        <time>2013-03-15T10:36:57Z</time>
      </trkpt>
      <trkpt lat="47.34612" lon="4.9177">
        <ele>355.026</ele>
        <time>2013-03-15T10:37:08Z</time>
      </trkpt>
      <trkpt lat="47.34615" lon="4.91788">
        <ele>352.864</ele>
        <time>2013-03-15T10:37:19Z</time>
      </trkpt>
      <trkpt lat="47.34617" lon="4.91813">
        <ele>349.517</ele>
        <time>2013-03-15T10:37:30Z</time>
      </trkpt>
      <trkpt lat="47.34617" lon="4.91838">
        <ele>348.568</ele>
        <time>2013-03-15T10:37:41Z</time>
      </trkpt>
      <trkpt lat="47.34615" lon="4.91863">
        <ele>345.438</ele>
        <time>2013-03-15T10:37:52Z</time>
      </trkpt>
      <trkpt lat="47.34618" lon="4.9189">
        <ele>346.22</ele>
        <time>2013-03-15T10:38:03Z</time>
      </trkpt>
      <trkpt lat="47.34623" lon="4.91918">
        <ele>343.496</ele>
        <time>2013-03-15T10:38:14Z</time>
      </trkpt>
      <trkpt lat="47.34622" lon="4.91943">
        <ele>342.811</ele>
        <time>2013-03-15T10:38:25Z</time>
      </trkpt>
      <trkpt lat="47.34618" lon="4.9197">
        <ele>343.53</ele>
        <time>2013-03-15T10:38:36Z</time>
      </trkpt>
      <trkpt lat="47.34613" lon="4.91993">
        <ele>343.118</ele>
        <time>2013-03-15T10:38:47Z</time>
      </trkpt>
      <trkpt lat="47.34607" lon="4.92017">
        <ele>342.871</ele>
        <time>2013-03-15T10:38:58Z</time>
      </trkpt>
      <trkpt lat="47.346" lon="4.9204">
        <ele>339.721</ele>
        <time>2013-03-15T10:39:09Z</time>
      </trkpt>
      <trkpt lat="47.34603" lon="4.92067">
        <ele>337.48</ele>
        <time>2013-03-15T10:39:20Z</time>
      </trkpt>
      <trkpt lat="47.34602" lon="4.92092">
        <ele>335.391</ele>
        <time>2013-03-15T10:39:31Z</time>
      </trkpt>
      <trkpt lat="47.346" lon="4.92115">
        <ele>334.473</ele>
        <time>2013-03-15T10:39:42Z</time>
      </trkpt>
      <trkpt lat="47.34595" lon="4.92138">
        <ele>333.319</ele>
        <time>2013-03-15T10:39:53Z</time>
      </trkpt>
      <trkpt lat="47.34592" lon="4.9216">
        <ele>332.906</ele>
        <time>2013-03-15T10:40:04Z</time>
      </trkpt>
      <trkpt lat="47.34592" lon="4.92187">
        <ele>331.34</ele>
        <time>2013-03-15T10:40:15Z</time>
      </trkpt>
      <trkpt lat="47.34587" lon="4.9221">
        <ele>329.148</ele>
        <time>2013-03-15T10:40:26Z</time>
      </trkpt>
      <trkpt lat="47.34583" lon="4.92232">
        <ele>326.876</ele>
        <time>2013-03-15T10:40:37Z</time>
      </trkpt>
      <trkpt lat="47.34585" lon="4.92238">
        <ele>326.433</ele>
        <time>2013-03-15T10:40:48Z</time>
      </trkpt>
      <trkpt lat="47.34585" lon="4.92238">
        <ele>326.433</ele>
        <time>2013-03-15T10:40:59Z</time>
      </trkpt>
      <trkpt lat="47.34585" lon="4.92238">
        <ele>326.371</ele>
        <time>2013-03-15T10:41:10Z</time>
      </trkpt>
      <trkpt lat="47.34585" lon="4.92238">
        <ele>326.371</ele>
        <time>2013-03-15T10:41:21Z</time>
      </trkpt>
      <trkpt lat="47.34585" lon="4.92243">
        <ele>326.256</ele>
        <time>2013-03-15T10:41:32Z</time>
      </trkpt>
      <trkpt lat="47.3459" lon="4.92265">
        <ele>325.449</ele>
        <time>2013-03-15T10:41:43Z</time>
      </trkpt>
      <trkpt lat="47.34603" lon="4.92273">
        <ele>326.557</ele>
        <time>2013-03-15T10:41:54Z</time>
      </trkpt>
      <trkpt lat="47.34613" lon="4.92272">
        <ele>325.616</ele>
        <time>2013-03-15T10:42:05Z</time>
      </trkpt>
      <trkpt lat="47.34632" lon="4.92267">
        <ele>327.106</ele>
        <time>2013-03-15T10:42:16Z</time>
      </trkpt>
      <trkpt lat="47.3465" lon="4.9226">
        <ele>326.789</ele>
        <time>2013-03-15T10:42:27Z</time>
      </trkpt>
      <trkpt lat="47.34665" lon="4.92255">
        <ele>326.615</ele>
        <time>2013-03-15T10:42:38Z</time>
      </trkpt>
      <trkpt lat="47.34677" lon="4.92252">
        <ele>326.28</ele>
        <time>2013-03-15T10:42:49Z</time>
      </trkpt>
      <trkpt lat="47.3469" lon="4.9225">
        <ele>325.847</ele>
        <time>2013-03-15T10:43:00Z</time>
      </trkpt>
      <trkpt lat="47.34703" lon="4.9226">
        <ele>325.919</ele>
        <time>2013-03-15T10:43:11Z</time>
      </trkpt>
      <trkpt lat="47.34702" lon="4.92275">
        <ele>326.429</ele>
        <time>2013-03-15T10:43:22Z</time>
      </trkpt>
      <trkpt lat="47.347" lon="4.92293">
        <ele>328.085</ele>
        <time>2013-03-15T10:43:33Z</time>
      </trkpt>
      <trkpt lat="47.34702" lon="4.92303">
        <ele>331.53</ele>
        <time>2013-03-15T10:43:44Z</time>
      </trkpt>
      <trkpt lat="47.34697" lon="4.9231">
        <ele>332.304</ele>
        <time>2013-03-15T10:43:55Z</time>
      </trkpt>
      <trkpt lat="47.34695" lon="4.92317">
        <ele>334.924</ele>
        <time>2013-03-15T10:44:06Z</time>
      </trkpt>
      <trkpt lat="47.34703" lon="4.92323">
        <ele>335.386</ele>
        <time>2013-03-15T10:44:17Z</time>
      </trkpt>
      <trkpt lat="47.34718" lon="4.92333">
        <ele>334.733</ele>
        <time>2013-03-15T10:44:28Z</time>
      </trkpt>
      <trkpt lat="47.34725" lon="4.92342">
        <ele>333.743</ele>
        <time>2013-03-15T10:44:39Z</time>
      </trkpt>
      <trkpt lat="47.34738" lon="4.92338">
        <ele>335.182</ele>
        <time>2013-03-15T10:44:50Z</time>
      </trkpt>
      <trkpt lat="47.34755" lon="4.92335">
        <ele>337.843</ele>
        <time>2013-03-15T10:45:01Z</time>
      </trkpt>
      <trkpt lat="47.34763" lon="4.92335">
        <ele>338.661</ele>
        <time>2013-03-15T10:45:12Z</time>
      </trkpt>
      <trkpt lat="47.34777" lon="4.92325">
        <ele>338.85</ele>
        <time>2013-03-15T10:45:23Z</time>
      </trkpt>
      <trkpt lat="47.3479" lon="4.92313">
        <ele>341.032</ele>
        <time>2013-03-15T10:45:34Z</time>
      </trkpt>
      <trkpt lat="47.34798" lon="4.92308">
        <ele>341.75</ele>
        <time>2013-03-15T10:45:45Z</time>
      </trkpt>
      <trkpt lat="47.34812" lon="4.92302">
        <ele>341.866</ele>
        <time>2013-03-15T10:45:56Z</time>
      </trkpt>
      <trkpt lat="47.34823" lon="4.92297">
        <ele>341.358</ele>
        <time>2013-03-15T10:46:07Z</time>
      </trkpt>
      <trkpt lat="47.3484" lon="4.92288">
        <ele>344.848</ele>
        <time>2013-03-15T10:46:18Z</time>
      </trkpt>
      <trkpt lat="47.34853" lon="4.92282">
        <ele>345.285</ele>
        <time>2013-03-15T10:46:29Z</time>
      </trkpt>
      <trkpt lat="47.34865" lon="4.92282">
        <ele>346.149</ele>
        <time>2013-03-15T10:46:40Z</time>
      </trkpt>
      <trkpt lat="47.34883" lon="4.92278">
        <ele>346.745</ele>
        <time>2013-03-15T10:46:51Z</time>
      </trkpt>
      <trkpt lat="47.34895" lon="4.92283">
        <ele>344.519</ele>
        <time>2013-03-15T10:47:02Z</time>
      </trkpt>
      <trkpt lat="47.34905" lon="4.92285">
        <ele>346.66</ele>
        <time>2013-03-15T10:47:13Z</time>
      </trkpt>
      <trkpt lat="47.34908" lon="4.92288">
        <ele>345.839</ele>
        <time>2013-03-15T10:47:24Z</time>
      </trkpt>
      <trkpt lat="47.34923" lon="4.92292">
        <ele>344.697</ele>
        <time>2013-03-15T10:47:35Z</time>
      </trkpt>
      <trkpt lat="47.3493" lon="4.92312">
        <ele>348.437</ele>
        <time>2013-03-15T10:47:46Z</time>
      </trkpt>
      <trkpt lat="47.34935" lon="4.92332">
        <ele>349.608</ele>
        <time>2013-03-15T10:47:57Z</time>
      </trkpt>
      <trkpt lat="47.34938" lon="4.92352">
        <ele>352.491</ele>
        <time>2013-03-15T10:48:08Z</time>
      </trkpt>
      <trkpt lat="47.34947" lon="4.9237">
        <ele>351.722</ele>
        <time>2013-03-15T10:48:19Z</time>
      </trkpt>
      <trkpt lat="47.34955" lon="4.92388">
        <ele>353.383</ele>
        <time>2013-03-15T10:48:30Z</time>
      </trkpt>
      <trkpt lat="47.34963" lon="4.9241">
        <ele>353.37</ele>
        <time>2013-03-15T10:48:41Z</time>
      </trkpt>
      <trkpt lat="47.34962" lon="4.92428">
        <ele>354.289</ele>
        <time>2013-03-15T10:48:52Z</time>
      </trkpt>
      <trkpt lat="47.3497" lon="4.92448">
        <ele>358.133</ele>
        <time>2013-03-15T10:49:03Z</time>
      </trkpt>
      <trkpt lat="47.34973" lon="4.92465">
        <ele>361.197</ele>
        <time>2013-03-15T10:49:14Z</time>
      </trkpt>
      <trkpt lat="47.34973" lon="4.92485">
        <ele>363.611</ele>
        <time>2013-03-15T10:49:25Z</time>
      </trkpt>
      <trkpt lat="47.34975" lon="4.92502">
        <ele>363.204</ele>
        <time>2013-03-15T10:49:36Z</time>
      </trkpt>
      <trkpt lat="47.34975" lon="4.92522">
        <ele>361.34</ele>
        <time>2013-03-15T10:49:47Z</time>
      </trkpt>
      <trkpt lat="47.34972" lon="4.9254">
        <ele>363.407</ele>
        <time>2013-03-15T10:49:58Z</time>
      </trkpt>
      <trkpt lat="47.34978" lon="4.92553">
        <ele>363.679</ele>
        <time>2013-03-15T10:50:09Z</time>
      </trkpt>
      <trkpt lat="47.34978" lon="4.92572">
        <ele>366.856</ele>
        <time>2013-03-15T10:50:20Z</time>
      </trkpt>
      <trkpt lat="47.34978" lon="4.92588">
        <ele>367.645</ele>
        <time>2013-03-15T10:50:31Z</time>
      </trkpt>
      <trkpt lat="47.34985" lon="4.92608">
        <ele>368.743</ele>
        <time>2013-03-15T10:50:42Z</time>
      </trkpt>
      <trkpt lat="47.3499" lon="4.92628">
        <ele>370.354</ele>
        <time>2013-03-15T10:50:53Z</time>
      </trkpt>
      <trkpt lat="47.3499" lon="4.92643">
        <ele>370.63</ele>
        <time>2013-03-15T10:51:04Z</time>
      </trkpt>
      <trkpt lat="47.34992" lon="4.92658">
        <ele>369.993</ele>
        <time>2013-03-15T10:51:15Z</time>
      </trkpt>
      <trkpt lat="47.35" lon="4.92668">
        <ele>371.4</ele>
        <time>2013-03-15T10:51:26Z</time>
      </trkpt>
      <trkpt lat="47.3501" lon="4.92673">
        <ele>372.981</ele>
        <time>2013-03-15T10:51:37Z</time>
      </trkpt>
      <trkpt lat="47.35017" lon="4.9268">
        <ele>374.491</ele>
        <time>2013-03-15T10:51:48Z</time>
      </trkpt>
      <trkpt lat="47.35022" lon="4.92685">
        <ele>375.419</ele>
        <time>2013-03-15T10:51:59Z</time>
      </trkpt>
      <trkpt lat="47.35028" lon="4.92693">
        <ele>376.923</ele>
        <time>2013-03-15T10:52:10Z</time>
      </trkpt>
      <trkpt lat="47.35037" lon="4.92707">
        <ele>377.568</ele>
        <time>2013-03-15T10:52:21Z</time>
      </trkpt>
      <trkpt lat="47.35042" lon="4.9272">
        <ele>379.977</ele>
        <time>2013-03-15T10:52:32Z</time>
      </trkpt>
      <trkpt lat="47.35045" lon="4.92733">
        <ele>381.93</ele>
        <time>2013-03-15T10:52:43Z</time>
      </trkpt>
      <trkpt lat="47.35047" lon="4.92735">
        <ele>381.995</ele>
        <time>2013-03-15T10:52:54Z</time>
      </trkpt>
      <trkpt lat="47.35047" lon="4.92737">
        <ele>382.671</ele>
        <time>2013-03-15T10:53:05Z</time>
      </trkpt>
      <trkpt lat="47.3505" lon="4.92738">
        <ele>382.237</ele>
        <time>2013-03-15T10:53:16Z</time>
      </trkpt>
      <trkpt lat="47.3505" lon="4.92738">
        <ele>382.237</ele>
        <time>2013-03-15T10:53:27Z</time>
      </trkpt>
      <trkpt lat="47.3505" lon="4.92738">
        <ele>382.237</ele>
        <time>2013-03-15T10:53:38Z</time>
      </trkpt>
      <trkpt lat="47.3505" lon="4.92738">
        <ele>382.237</ele>
        <time>2013-03-15T10:53:49Z</time>
      </trkpt>
      <trkpt lat="47.3505" lon="4.92738">
        <ele>382.151</ele>
        <time>2013-03-15T10:54:00Z</time>
      </trkpt>
      <trkpt lat="47.3505" lon="4.92738">
        <ele>382.3</ele>
        <time>2013-03-15T10:54:11Z</time>
      </trkpt>
      <trkpt lat="47.3505" lon="4.92738">
        <ele>382.458</ele>
        <time>2013-03-15T10:54:22Z</time>
      </trkpt>
      <trkpt lat="47.3505" lon="4.9274">
        <ele>382.715</ele>
        <time>2013-03-15T10:54:33Z</time>
      </trkpt>
      <trkpt lat="47.35053" lon="4.92742">
        <ele>384.129</ele>
        <time>2013-03-15T10:54:44Z</time>
      </trkpt>
      <trkpt lat="47.35057" lon="4.92757">
        <ele>386.875</ele>
        <time>2013-03-15T10:54:55Z</time>
      </trkpt>
      <trkpt lat="47.35065" lon="4.9278">
        <ele>385.942</ele>
        <time>2013-03-15T10:55:06Z</time>
      </trkpt>
      <trkpt lat="47.35075" lon="4.92805">
        <ele>384.438</ele>
        <time>2013-03-15T10:55:17Z</time>
      </trkpt>
      <trkpt lat="47.35082" lon="4.92825">
        <ele>385.256</ele>
        <time>2013-03-15T10:55:28Z</time>
      </trkpt>
      <trkpt lat="47.35085" lon="4.92847">
        <ele>386.543</ele>
        <time>2013-03-15T10:55:39Z</time>
      </trkpt>
      <trkpt lat="47.35093" lon="4.92867">
        <ele>387.483</ele>
        <time>2013-03-15T10:55:50Z</time>
      </trkpt>
      <trkpt lat="47.351" lon="4.92888">
        <ele>389.001</ele>
        <time>2013-03-15T10:56:01Z</time>
      </trkpt>
      <trkpt lat="47.35108" lon="4.9291">
        <ele>388.783</ele>
        <time>2013-03-15T10:56:12Z</time>
      </trkpt>
      <trkpt lat="47.35117" lon="4.92933">
        <ele>388.869</ele>
        <time>2013-03-15T10:56:23Z</time>
      </trkpt>
      <trkpt lat="47.35122" lon="4.92953">
        <ele>389.345</ele>
        <time>2013-03-15T10:56:34Z</time>
      </trkpt>
      <trkpt lat="47.35128" lon="4.92973">
        <ele>390.306</ele>
        <time>2013-03-15T10:56:45Z</time>
      </trkpt>
      <trkpt lat="47.35132" lon="4.92995">
        <ele>390.904</ele>
        <time>2013-03-15T10:56:56Z</time>
      </trkpt>
      <trkpt lat="47.35137" lon="4.93015">
        <ele>390.622</ele>
        <time>2013-03-15T10:57:07Z</time>
      </trkpt>
      <trkpt lat="47.35142" lon="4.93032">
        <ele>390.216</ele>
        <time>2013-03-15T10:57:18Z</time>
      </trkpt>
      <trkpt lat="47.35147" lon="4.93047">
        <ele>385.877</ele>
        <time>2013-03-15T10:57:29Z</time>
      </trkpt>
      <trkpt lat="47.35153" lon="4.93065">
        <ele>385.164</ele>
        <time>2013-03-15T10:57:40Z</time>
      </trkpt>
      <trkpt lat="47.35155" lon="4.9308">
        <ele>385.142</ele>
        <time>2013-03-15T10:57:51Z</time>
      </trkpt>
      <trkpt lat="47.35152" lon="4.93092">
        <ele>384.456</ele>
        <time>2013-03-15T10:58:02Z</time>
      </trkpt>
      <trkpt lat="47.35133" lon="4.93097">
        <ele>385.001</ele>
        <time>2013-03-15T10:58:13Z</time>
      </trkpt>
      <trkpt lat="47.35122" lon="4.93098">
        <ele>384.749</ele>
        <time>2013-03-15T10:58:24Z</time>
      </trkpt>
      <trkpt lat="47.3511" lon="4.93098">
        <ele>385.001</ele>
        <time>2013-03-15T10:58:35Z</time>
      </trkpt>
      <trkpt lat="47.35095" lon="4.93107">
        <ele>384.592</ele>
        <time>2013-03-15T10:58:46Z</time>
      </trkpt>
      <trkpt lat="47.35092" lon="4.93108">
        <ele>383.802</ele>
        <time>2013-03-15T10:58:57Z</time>
      </trkpt>
      <trkpt lat="47.35078" lon="4.9311">
        <ele>381.263</ele>
        <time>2013-03-15T10:59:08Z</time>
      </trkpt>
      <trkpt lat="47.3507" lon="4.93118">
        <ele>380.821</ele>
        <time>2013-03-15T10:59:19Z</time>
      </trkpt>
      <trkpt lat="47.35062" lon="4.93128">
        <ele>379.528</ele>
        <time>2013-03-15T10:59:30Z</time>
      </trkpt>
      <trkpt lat="47.35057" lon="4.93138">
        <ele>377.787</ele>
        <time>2013-03-15T10:59:41Z</time>
      </trkpt>
      <trkpt lat="47.35047" lon="4.9314">
        <ele>376.33</ele>
        <time>2013-03-15T10:59:52Z</time>
      </trkpt>
      <trkpt lat="47.35033" lon="4.93155">
        <ele>374.344</ele>
        <time>2013-03-15T11:00:03Z</time>
      </trkpt>
      <trkpt lat="47.35017" lon="4.93168">
        <ele>371.71</ele>
        <time>2013-03-15T11:00:14Z</time>
      </trkpt>
      <trkpt lat="47.35002" lon="4.93177">
        <ele>368.889</ele>
        <time>2013-03-15T11:00:25Z</time>
      </trkpt>
      <trkpt lat="47.34985" lon="4.93188">
        <ele>370.015</ele>
        <time>2013-03-15T11:00:36Z</time>
      </trkpt>
      <trkpt lat="47.34982" lon="4.93203">
        <ele>373.26</ele>
        <time>2013-03-15T11:00:47Z</time>
      </trkpt>
      <trkpt lat="47.34973" lon="4.93218">
        <ele>372.169</ele>
        <time>2013-03-15T11:00:58Z</time>
      </trkpt>
      <trkpt lat="47.34953" lon="4.93227">
        <ele>370.816</ele>
        <time>2013-03-15T11:01:09Z</time>
      </trkpt>
      <trkpt lat="47.34942" lon="4.93243">
        <ele>369.052</ele>
        <time>2013-03-15T11:01:20Z</time>
      </trkpt>
      <trkpt lat="47.34937" lon="4.9327">
        <ele>367.356</ele>
        <time>2013-03-15T11:01:31Z</time>
      </trkpt>
      <trkpt lat="47.34927" lon="4.93288">
        <ele>365.088</ele>
        <time>2013-03-15T11:01:42Z</time>
      </trkpt>
      <trkpt lat="47.34913" lon="4.93307">
        <ele>364.483</ele>
        <time>2013-03-15T11:01:53Z</time>
      </trkpt>
      <trkpt lat="47.34897" lon="4.93322">
        <ele>361.398</ele>
        <time>2013-03-15T11:02:04Z</time>
      </trkpt>
      <trkpt lat="47.3487" lon="4.93333">
        <ele>360.154</ele>
        <time>2013-03-15T11:02:15Z</time>
      </trkpt>
      <trkpt lat="47.34855" lon="4.93343">
        <ele>356.129</ele>
        <time>2013-03-15T11:02:26Z</time>
      </trkpt>
      <trkpt lat="47.34842" lon="4.93358">
        <ele>354.271</ele>
        <time>2013-03-15T11:02:37Z</time>
      </trkpt>
      <trkpt lat="47.34833" lon="4.93383">
        <ele>354.997</ele>
        <time>2013-03-15T11:02:48Z</time>
      </trkpt>
      <trkpt lat="47.34813" lon="4.93402">
        <ele>354.51</ele>
        <time>2013-03-15T11:02:59Z</time>
      </trkpt>
      <trkpt lat="47.34798" lon="4.93418">
        <ele>352.941</ele>
        <time>2013-03-15T11:03:10Z</time>
      </trkpt>
      <trkpt lat="47.34778" lon="4.93433">
        <ele>352.239</ele>
        <time>2013-03-15T11:03:21Z</time>
      </trkpt>
      <trkpt lat="47.34772" lon="4.93457">
        <ele>349.395</ele>
        <time>2013-03-15T11:03:32Z</time>
      </trkpt>
      <trkpt lat="47.34763" lon="4.93482">
        <ele>346.26</ele>
        <time>2013-03-15T11:03:43Z</time>
      </trkpt>
      <trkpt lat="47.34763" lon="4.93508">
        <ele>346.048</ele>
        <time>2013-03-15T11:03:54Z</time>
      </trkpt>
      <trkpt lat="47.3475" lon="4.93532">
        <ele>342.293</ele>
        <time>2013-03-15T11:04:05Z</time>
      </trkpt>
      <trkpt lat="47.34742" lon="4.93552">
        <ele>341.792</ele>
        <time>2013-03-15T11:04:16Z</time>
      </trkpt>
      <trkpt lat="47.3473" lon="4.93573">
        <ele>339.224</ele>
        <time>2013-03-15T11:04:27Z</time>
      </trkpt>
      <trkpt lat="47.34733" lon="4.93602">
        <ele>335.019</ele>
        <time>2013-03-15T11:04:38Z</time>
      </trkpt>
      <trkpt lat="47.34737" lon="4.93622">
        <ele>331.523</ele>
        <time>2013-03-15T11:04:49Z</time>
      </trkpt>
      <trkpt lat="47.34725" lon="4.9363">
        <ele>331.482</ele>
        <time>2013-03-15T11:05:00Z</time>
      </trkpt>
      <trkpt lat="47.34705" lon="4.93635">
        <ele>331.538</ele>
        <time>2013-03-15T11:05:11Z</time>
      </trkpt>
      <trkpt lat="47.3469" lon="4.9364">
        <ele>328.443</ele>
        <time>2013-03-15T11:05:22Z</time>
      </trkpt>
      <trkpt lat="47.34663" lon="4.93648">
        <ele>327.074</ele>
        <time>2013-03-15T11:05:33Z</time>
      </trkpt>
      <trkpt lat="47.34637" lon="4.93647">
        <ele>325.882</ele>
        <time>2013-03-15T11:05:44Z</time>
      </trkpt>
      <trkpt lat="47.34628" lon="4.93658">
        <ele>325.008</ele>
        <time>2013-03-15T11:05:55Z</time>
      </trkpt>
      <trkpt lat="47.34615" lon="4.93672">
        <ele>325.91</ele>
        <time>2013-03-15T11:06:06Z</time>
      </trkpt>
      <trkpt lat="47.34602" lon="4.93678">
        <ele>325.927</ele>
        <time>2013-03-15T11:06:17Z</time>
      </trkpt>
      <trkpt lat="47.34595" lon="4.9369">
        <ele>326.161</ele>
        <time>2013-03-15T11:06:28Z</time>
      </trkpt>
      <trkpt lat="47.34578" lon="4.93698">
        <ele>329.672</ele>
        <time>2013-03-15T11:06:39Z</time>
      </trkpt>
      <trkpt lat="47.3456" lon="4.93707">
        <ele>326.543</ele>
        <time>2013-03-15T11:06:50Z</time>
      </trkpt>
      <trkpt lat="47.3455" lon="4.93723">
        <ele>324.14</ele>
        <time>2013-03-15T11:07:01Z</time>
      </trkpt>
      <trkpt lat="47.34532" lon="4.93737">
        <ele>317.332</ele>
        <time>2013-03-15T11:07:12Z</time>
      </trkpt>
      <trkpt lat="47.34503" lon="4.93743">
        <ele>313.65</ele>
        <time>2013-03-15T11:07:23Z</time>
      </trkpt>
      <trkpt lat="47.34493" lon="4.93753">
        <ele>309.767</ele>
        <time>2013-03-15T11:07:34Z</time>
      </trkpt>
      <trkpt lat="47.34477" lon="4.9376">
        <ele>307.547</ele>
        <time>2013-03-15T11:07:45Z</time>
      </trkpt>
      <trkpt lat="47.3447" lon="4.93775">
        <ele>311.531</ele>
        <time>2013-03-15T11:07:56Z</time>
      </trkpt>
      <trkpt lat="47.34457" lon="4.9379">
        <ele>316.159</ele>
        <time>2013-03-15T11:08:07Z</time>
      </trkpt>
      <trkpt lat="47.34445" lon="4.93813">
        <ele>318.602</ele>
        <time>2013-03-15T11:08:18Z</time>
      </trkpt>
      <trkpt lat="47.34442" lon="4.93837">
        <ele>318.234</ele>
        <time>2013-03-15T11:08:29Z</time>
      </trkpt>
      <trkpt lat="47.34438" lon="4.93862">
        <ele>317.006</ele>
        <time>2013-03-15T11:08:40Z</time>
      </trkpt>
      <trkpt lat="47.34428" lon="4.93888">
        <ele>312.009</ele>
        <time>2013-03-15T11:08:51Z</time>
      </trkpt>
      <trkpt lat="47.34417" lon="4.93912">
        <ele>307.182</ele>
        <time>2013-03-15T11:09:02Z</time>
      </trkpt>
      <trkpt lat="47.34412" lon="4.9393">
        <ele>304.87</ele>
        <time>2013-03-15T11:09:13Z</time>
      </trkpt>
      <trkpt lat="47.34408" lon="4.93945">
        <ele>306.531</ele>
        <time>2013-03-15T11:09:24Z</time>
      </trkpt>
      <trkpt lat="47.34412" lon="4.9397">
        <ele>304.986</ele>
        <time>2013-03-15T11:09:35Z</time>
      </trkpt>
      <trkpt lat="47.34412" lon="4.93993">
        <ele>303.175</ele>
        <time>2013-03-15T11:09:46Z</time>
      </trkpt>
      <trkpt lat="47.34395" lon="4.9401">
        <ele>300.034</ele>
        <time>2013-03-15T11:09:57Z</time>
      </trkpt>
      <trkpt lat="47.344" lon="4.94028">
        <ele>298.411</ele>
        <time>2013-03-15T11:10:08Z</time>
      </trkpt>
      <trkpt lat="47.34397" lon="4.94048">
        <ele>299.298</ele>
        <time>2013-03-15T11:10:19Z</time>
      </trkpt>
      <trkpt lat="47.3438" lon="4.94065">
        <ele>302.335</ele>
        <time>2013-03-15T11:10:30Z</time>
      </trkpt>
      <trkpt lat="47.34368" lon="4.9408">
        <ele>302.28</ele>
        <time>2013-03-15T11:10:41Z</time>
      </trkpt>
      <trkpt lat="47.34348" lon="4.9409">
        <ele>301.883</ele>
        <time>2013-03-15T11:10:52Z</time>
      </trkpt>
      <trkpt lat="47.34332" lon="4.941">
        <ele>298.099</ele>
        <time>2013-03-15T11:11:03Z</time>
      </trkpt>
      <trkpt lat="47.3433" lon="4.94112">
        <ele>297.216</ele>
        <time>2013-03-15T11:11:14Z</time>
      </trkpt>
      <trkpt lat="47.34317" lon="4.94125">
        <ele>296.101</ele>
        <time>2013-03-15T11:11:25Z</time>
      </trkpt>
      <trkpt lat="47.34315" lon="4.94127">
        <ele>295.106</ele>
        <time>2013-03-15T11:11:36Z</time>
      </trkpt>
      <trkpt lat="47.34307" lon="4.94135">
        <ele>293.882</ele>
        <time>2013-03-15T11:11:47Z</time>
      </trkpt>
      <trkpt lat="47.34285" lon="4.9414">
        <ele>294.216</ele>
        <time>2013-03-15T11:11:58Z</time>
      </trkpt>
      <trkpt lat="47.34265" lon="4.94152">
        <ele>296.449</ele>
        <time>2013-03-15T11:12:09Z</time>
      </trkpt>
      <trkpt lat="47.34248" lon="4.9416">
        <ele>298.84</ele>
        <time>2013-03-15T11:12:20Z</time>
      </trkpt>
      <trkpt lat="47.34228" lon="4.94168">
        <ele>298.811</ele>
        <time>2013-03-15T11:12:31Z</time>
      </trkpt>
      <trkpt lat="47.34212" lon="4.94182">
        <ele>298.74</ele>
        <time>2013-03-15T11:12:42Z</time>
      </trkpt>
      <trkpt lat="47.34188" lon="4.94192">
        <ele>297.823</ele>
        <time>2013-03-15T11:12:53Z</time>
      </trkpt>
      <trkpt lat="47.34177" lon="4.94197">
        <ele>296.71</ele>
        <time>2013-03-15T11:13:04Z</time>
      </trkpt>
      <trkpt lat="47.3417" lon="4.94195">
        <ele>296.939</ele>
        <time>2013-03-15T11:13:15Z</time>
      </trkpt>
      <trkpt lat="47.34153" lon="4.94188">
        <ele>299.528</ele>
        <time>2013-03-15T11:13:26Z</time>
      </trkpt>
      <trkpt lat="47.34132" lon="4.94177">
        <ele>301.81</ele>
        <time>2013-03-15T11:13:37Z</time>
      </trkpt>
      <trkpt lat="47.34112" lon="4.94165">
        <ele>300.902</ele>
        <time>2013-03-15T11:13:48Z</time>
      </trkpt>
      <trkpt lat="47.34097" lon="4.9415">
        <ele>300.618</ele>
        <time>2013-03-15T11:13:59Z</time>
      </trkpt>
      <trkpt lat="47.34083" lon="4.9414">
        <ele>301.396</ele>
        <time>2013-03-15T11:14:10Z</time>
      </trkpt>
      <trkpt lat="47.34072" lon="4.94125">
        <ele>299.524</ele>
        <time>2013-03-15T11:14:21Z</time>
      </trkpt>
      <trkpt lat="47.34062" lon="4.94112">
        <ele>298.893</ele>
        <time>2013-03-15T11:14:32Z</time>
      </trkpt>
      <trkpt lat="47.34047" lon="4.94107">
        <ele>300.553</ele>
        <time>2013-03-15T11:14:43Z</time>
      </trkpt>
      <trkpt lat="47.34037" lon="4.94098">
        <ele>301.739</ele>
        <time>2013-03-15T11:14:54Z</time>
      </trkpt>
      <trkpt lat="47.34028" lon="4.94097">
        <ele>299.903</ele>
        <time>2013-03-15T11:15:05Z</time>
      </trkpt>
      <trkpt lat="47.34022" lon="4.94095">
        <ele>300.883</ele>
        <time>2013-03-15T11:15:16Z</time>
      </trkpt>
      <trkpt lat="47.34003" lon="4.94097">
        <ele>300.435</ele>
        <time>2013-03-15T11:15:27Z</time>
      </trkpt>
      <trkpt lat="47.33985" lon="4.94098">
        <ele>298.08</ele>
        <time>2013-03-15T11:15:38Z</time>
      </trkpt>
      <trkpt lat="47.33963" lon="4.94105">
        <ele>298.01</ele>
        <time>2013-03-15T11:15:49Z</time>
      </trkpt>
      <trkpt lat="47.33962" lon="4.94125">
        <ele>293.988</ele>
        <time>2013-03-15T11:16:00Z</time>
      </trkpt>
      <trkpt lat="47.33958" lon="4.94142">
        <ele>289.166</ele>
        <time>2013-03-15T11:16:11Z</time>
      </trkpt>
      <trkpt lat="47.33952" lon="4.94152">
        <ele>289.201</ele>
        <time>2013-03-15T11:16:22Z</time>
      </trkpt>
      <trkpt lat="47.33942" lon="4.94162">
        <ele>286.083</ele>
        <time>2013-03-15T11:16:33Z</time>
      </trkpt>
      <trkpt lat="47.33935" lon="4.94175">
        <ele>283.818</ele>
        <time>2013-03-15T11:16:44Z</time>
      </trkpt>
      <trkpt lat="47.33933" lon="4.94188">
        <ele>281.862</ele>
        <time>2013-03-15T11:16:55Z</time>
      </trkpt>
      <trkpt lat="47.3392" lon="4.942">
        <ele>281.815</ele>
        <time>2013-03-15T11:17:06Z</time>
      </trkpt>
      <trkpt lat="47.33917" lon="4.94205">
        <ele>280.561</ele>
        <time>2013-03-15T11:17:17Z</time>
      </trkpt>
      <trkpt lat="47.33918" lon="4.94205">
        <ele>280.644</ele>
        <time>2013-03-15T11:17:28Z</time>
      </trkpt>
      <trkpt lat="47.3392" lon="4.94205">
        <ele>280.295</ele>
        <time>2013-03-15T11:17:39Z</time>
      </trkpt>
      <trkpt lat="47.33918" lon="4.94203">
        <ele>279.795</ele>
        <time>2013-03-15T11:17:50Z</time>
      </trkpt>
      <trkpt lat="47.3392" lon="4.94203">
        <ele>280.251</ele>
        <time>2013-03-15T11:18:01Z</time>
      </trkpt>
    </trkseg>
  </trk>
</gpx>